sensor_id;sensor_type;location;lat;lon;timestamp;noise_LAeq;noise_LA_min;noise_LA_max;noise_LA01;noise_LA95
60031;Laerm;45901;47.600;9.890;2024-01-25T00:00:33;45.65;42.82;50.01;;
60031;Laerm;45901;47.600;9.890;2024-01-25T00:03:00;45.46;42.59;50.02;;
60031;Laerm;45901;47.600;9.890;2024-01-25T00:05:27;45.47;42.59;50.82;;
60031;Laerm;45901;47.600;9.890;2024-01-25T00:07:54;45.68;42.47;51.06;;
60031;Laerm;45901;47.600;9.890;2024-01-25T00:10:21;46.15;42.22;50.84;;
60031;Laerm;45901;47.600;9.890;2024-01-25T00:12:48;46.78;42.82;51.47;;
60031;Laerm;45901;47.600;9.890;2024-01-25T00:15:15;46.42;42.88;51.59;;
60031;Laerm;45901;47.600;9.890;2024-01-25T00:17:43;46.80;43.39;51.25;;
60031;Laerm;45901;47.600;9.890;2024-01-25T00:20:11;46.91;43.09;51.53;;
60031;Laerm;45901;47.600;9.890;2024-01-25T00:22:37;47.30;43.19;52.11;;
60031;Laerm;45901;47.600;9.890;2024-01-25T00:25:06;46.90;43.54;51.67;;
60031;Laerm;45901;47.600;9.890;2024-01-25T00:27:33;46.92;43.19;51.54;;
60031;Laerm;45901;47.600;9.890;2024-01-25T00:30:00;46.89;43.09;51.80;;
60031;Laerm;45901;47.600;9.890;2024-01-25T00:32:27;46.93;43.39;51.88;;
60031;Laerm;45901;47.600;9.890;2024-01-25T00:34:56;46.80;43.24;51.72;;
60031;Laerm;45901;47.600;9.890;2024-01-25T00:37:23;46.98;43.14;51.97;;
60031;Laerm;45901;47.600;9.890;2024-01-25T00:39:51;46.83;43.14;51.62;;
60031;Laerm;45901;47.600;9.890;2024-01-25T00:42:22;46.83;43.34;52.62;;
60031;Laerm;45901;47.600;9.890;2024-01-25T00:44:50;46.18;41.96;51.17;;
60031;Laerm;45901;47.600;9.890;2024-01-25T00:47:19;45.88;42.53;51.08;;
60031;Laerm;45901;47.600;9.890;2024-01-25T00:49:47;45.86;42.53;50.56;;
60031;Laerm;45901;47.600;9.890;2024-01-25T00:52:16;45.88;42.29;50.66;;
60031;Laerm;45901;47.600;9.890;2024-01-25T00:54:43;45.38;42.47;50.85;;
60031;Laerm;45901;47.600;9.890;2024-01-25T00:57:12;45.64;41.68;49.89;;
60031;Laerm;45901;47.600;9.890;2024-01-25T00:59:39;46.31;42.59;50.71;;
60031;Laerm;45901;47.600;9.890;2024-01-25T01:02:12;46.13;42.71;51.98;;
60031;Laerm;45901;47.600;9.890;2024-01-25T01:04:40;45.93;42.59;51.07;;
60031;Laerm;45901;47.600;9.890;2024-01-25T01:07:09;46.10;43.14;50.56;;
60031;Laerm;45901;47.600;9.890;2024-01-25T01:09:38;46.33;42.76;50.52;;
60031;Laerm;45901;47.600;9.890;2024-01-25T01:12:05;46.22;42.59;51.04;;
60031;Laerm;45901;47.600;9.890;2024-01-25T01:14:33;46.25;43.09;52.10;;
60031;Laerm;45901;47.600;9.890;2024-01-25T01:17:00;46.37;42.88;50.71;;
60031;Laerm;45901;47.600;9.890;2024-01-25T01:19:27;46.19;42.65;50.38;;
60031;Laerm;45901;47.600;9.890;2024-01-25T01:21:54;47.11;42.71;51.08;;
60031;Laerm;45901;47.600;9.890;2024-01-25T01:24:20;46.77;43.19;51.01;;
60031;Laerm;45901;47.600;9.890;2024-01-25T01:26:49;47.09;43.19;51.82;;
60031;Laerm;45901;47.600;9.890;2024-01-25T01:29:16;46.73;43.24;50.93;;
60031;Laerm;45901;47.600;9.890;2024-01-25T01:31:43;47.11;43.39;52.23;;
60031;Laerm;45901;47.600;9.890;2024-01-25T01:34:10;47.17;43.49;52.15;;
60031;Laerm;45901;47.600;9.890;2024-01-25T01:36:38;47.11;43.04;52.57;;
60031;Laerm;45901;47.600;9.890;2024-01-25T01:39:05;47.32;43.29;52.34;;
60031;Laerm;45901;47.600;9.890;2024-01-25T01:41:32;46.91;43.58;53.08;;
60031;Laerm;45901;47.600;9.890;2024-01-25T01:44:01;46.33;43.34;50.63;;
60031;Laerm;45901;47.600;9.890;2024-01-25T01:46:33;46.45;43.24;51.41;;
60031;Laerm;45901;47.600;9.890;2024-01-25T01:49:03;46.25;42.98;50.77;;
60031;Laerm;45901;47.600;9.890;2024-01-25T01:51:31;46.02;42.98;50.52;;
60031;Laerm;45901;47.600;9.890;2024-01-25T01:54:01;46.09;41.53;55.31;;
60031;Laerm;45901;47.600;9.890;2024-01-25T01:56:28;45.03;41.75;50.29;;
60031;Laerm;45901;47.600;9.890;2024-01-25T01:58:57;44.45;40.43;49.71;;
60031;Laerm;45901;47.600;9.890;2024-01-25T02:01:26;45.04;39.68;52.78;;
60031;Laerm;45901;47.600;9.890;2024-01-25T02:03:53;44.53;40.53;53.60;;
60031;Laerm;45901;47.600;9.890;2024-01-25T02:06:22;44.41;40.98;53.56;;
60031;Laerm;45901;47.600;9.890;2024-01-25T02:08:50;44.10;40.71;53.62;;
60031;Laerm;45901;47.600;9.890;2024-01-25T02:11:19;44.35;40.23;52.76;;
60031;Laerm;45901;47.600;9.890;2024-01-25T02:13:46;45.06;41.68;54.90;;
60031;Laerm;45901;47.600;9.890;2024-01-25T02:16:13;44.88;41.61;54.06;;
60031;Laerm;45901;47.600;9.890;2024-01-25T02:18:42;45.42;40.13;54.02;;
60031;Laerm;45901;47.600;9.890;2024-01-25T02:21:09;45.42;41.22;54.84;;
60031;Laerm;45901;47.600;9.890;2024-01-25T02:23:38;45.39;40.43;54.96;;
60031;Laerm;45901;47.600;9.890;2024-01-25T02:26:05;45.63;40.62;55.50;;
60031;Laerm;45901;47.600;9.890;2024-01-25T02:28:32;45.68;40.43;55.45;;
60031;Laerm;45901;47.600;9.890;2024-01-25T02:31:01;45.43;41.14;55.76;;
60031;Laerm;45901;47.600;9.890;2024-01-25T02:33:28;45.31;40.80;53.19;;
60031;Laerm;45901;47.600;9.890;2024-01-25T02:35:55;45.49;40.79;54.77;;
60031;Laerm;45901;47.600;9.890;2024-01-25T02:38:22;45.21;40.03;53.86;;
60031;Laerm;45901;47.600;9.890;2024-01-25T02:40:51;45.93;40.71;55.52;;
60031;Laerm;45901;47.600;9.890;2024-01-25T02:43:19;45.26;40.33;54.53;;
60031;Laerm;45901;47.600;9.890;2024-01-25T02:45:46;45.19;39.58;54.81;;
60031;Laerm;45901;47.600;9.890;2024-01-25T02:48:14;44.93;39.34;54.16;;
60031;Laerm;45901;47.600;9.890;2024-01-25T02:50:41;45.52;40.71;54.61;;
60031;Laerm;45901;47.600;9.890;2024-01-25T02:53:08;45.02;40.62;54.55;;
60031;Laerm;45901;47.600;9.890;2024-01-25T02:55:35;44.86;39.99;54.14;;
60031;Laerm;45901;47.600;9.890;2024-01-25T02:58:03;44.65;40.62;54.32;;
60031;Laerm;45901;47.600;9.890;2024-01-25T03:00:30;44.48;39.92;54.79;;
60031;Laerm;45901;47.600;9.890;2024-01-25T03:02:57;44.33;40.03;54.07;;
60031;Laerm;45901;47.600;9.890;2024-01-25T03:05:24;44.17;39.58;52.25;;
60031;Laerm;45901;47.600;9.890;2024-01-25T03:07:51;44.55;39.08;54.00;;
60031;Laerm;45901;47.600;9.890;2024-01-25T03:10:18;44.50;40.80;53.39;;
60031;Laerm;45901;47.600;9.890;2024-01-25T03:12:45;44.16;38.81;52.34;;
60031;Laerm;45901;47.600;9.890;2024-01-25T03:15:14;44.68;41.30;53.28;;
60031;Laerm;45901;47.600;9.890;2024-01-25T03:17:41;44.85;40.80;54.23;;
60031;Laerm;45901;47.600;9.890;2024-01-25T03:20:10;45.50;41.75;54.53;;
60031;Laerm;45901;47.600;9.890;2024-01-25T03:22:37;44.64;40.23;53.15;;
60031;Laerm;45901;47.600;9.890;2024-01-25T03:25:04;44.66;40.33;54.13;;
60031;Laerm;45901;47.600;9.890;2024-01-25T03:27:31;44.58;40.33;53.64;;
60031;Laerm;45901;47.600;9.890;2024-01-25T03:29:58;45.03;40.89;54.73;;
60031;Laerm;45901;47.600;9.890;2024-01-25T03:32:26;44.88;38.81;54.29;;
60031;Laerm;45901;47.600;9.890;2024-01-25T03:34:53;45.03;41.22;53.69;;
60031;Laerm;45901;47.600;9.890;2024-01-25T03:37:20;45.17;41.30;53.64;;
60031;Laerm;45901;47.600;9.890;2024-01-25T03:39:47;45.01;39.34;53.19;;
60031;Laerm;45901;47.600;9.890;2024-01-25T03:42:14;45.28;39.92;53.76;;
60031;Laerm;45901;47.600;9.890;2024-01-25T03:44:41;45.93;40.80;54.17;;
60031;Laerm;45901;47.600;9.890;2024-01-25T03:47:10;45.81;41.22;52.84;;
60031;Laerm;45901;47.600;9.890;2024-01-25T03:49:38;46.17;40.80;54.91;;
60031;Laerm;45901;47.600;9.890;2024-01-25T03:52:06;46.20;42.41;55.04;;
60031;Laerm;45901;47.600;9.890;2024-01-25T03:54:33;46.01;40.33;54.02;;
60031;Laerm;45901;47.600;9.890;2024-01-25T03:57:00;46.05;41.89;54.23;;
60031;Laerm;45901;47.600;9.890;2024-01-25T03:59:27;46.93;40.62;56.73;;
60031;Laerm;45901;47.600;9.890;2024-01-25T04:01:54;46.00;41.46;55.54;;
60031;Laerm;45901;47.600;9.890;2024-01-25T04:04:22;46.48;40.71;54.71;;
60031;Laerm;45901;47.600;9.890;2024-01-25T04:06:50;46.12;42.16;55.30;;
60031;Laerm;45901;47.600;9.890;2024-01-25T04:09:18;46.27;40.62;55.09;;
60031;Laerm;45901;47.600;9.890;2024-01-25T04:11:45;45.89;41.30;54.65;;
60031;Laerm;45901;47.600;9.890;2024-01-25T04:14:12;45.65;41.14;53.62;;
60031;Laerm;45901;47.600;9.890;2024-01-25T04:16:39;45.45;40.43;53.48;;
60031;Laerm;45901;47.600;9.890;2024-01-25T04:19:07;45.62;41.30;53.65;;
60031;Laerm;45901;47.600;9.890;2024-01-25T04:21:37;45.75;39.92;54.06;;
60031;Laerm;45901;47.600;9.890;2024-01-25T04:24:06;46.24;41.38;54.99;;
60031;Laerm;45901;47.600;9.890;2024-01-25T04:26:33;45.90;41.38;53.57;;
60031;Laerm;45901;47.600;9.890;2024-01-25T04:29:00;45.96;40.23;55.74;;
60031;Laerm;45901;47.600;9.890;2024-01-25T04:31:27;46.44;40.71;55.69;;
60031;Laerm;45901;47.600;9.890;2024-01-25T04:33:54;46.44;42.09;54.29;;
60031;Laerm;45901;47.600;9.890;2024-01-25T04:36:20;45.44;40.62;53.97;;
60031;Laerm;45901;47.600;9.890;2024-01-25T04:38:47;45.62;41.75;54.47;;
60031;Laerm;45901;47.600;9.890;2024-01-25T04:41:16;45.48;39.70;54.66;;
60031;Laerm;45901;47.600;9.890;2024-01-25T04:43:42;45.52;41.06;53.33;;
60031;Laerm;45901;47.600;9.890;2024-01-25T04:46:11;45.79;41.06;55.05;;
60031;Laerm;45901;47.600;9.890;2024-01-25T04:48:37;45.58;39.81;53.50;;
60031;Laerm;45901;47.600;9.890;2024-01-25T05:19:33;45.71;40.27;55.14;;
60031;Laerm;45901;47.600;9.890;2024-01-25T08:27:43;46.29;39.34;55.11;;
60031;Laerm;45901;47.600;9.890;2024-01-25T10:54:08;43.94;40.71;50.55;;
60031;Laerm;45901;47.600;9.890;2024-01-25T10:56:35;43.35;40.53;46.05;;
60031;Laerm;45901;47.600;9.890;2024-01-25T10:59:02;44.68;41.68;47.81;;
60031;Laerm;45901;47.600;9.890;2024-01-25T11:01:30;44.54;41.53;48.10;;
60031;Laerm;45901;47.600;9.890;2024-01-25T11:03:57;44.43;42.03;47.18;;
60031;Laerm;45901;47.600;9.890;2024-01-25T11:06:26;44.75;41.38;47.96;;
60031;Laerm;45901;47.600;9.890;2024-01-25T11:09:04;44.69;42.09;47.72;;
60031;Laerm;45901;47.600;9.890;2024-01-25T11:11:33;44.24;41.46;47.79;;
60031;Laerm;45901;47.600;9.890;2024-01-25T11:14:02;44.00;41.68;46.43;;
60031;Laerm;45901;47.600;9.890;2024-01-25T11:16:31;43.99;41.61;46.78;;
60031;Laerm;45901;47.600;9.890;2024-01-25T11:19:00;43.87;40.98;45.91;;
60031;Laerm;45901;47.600;9.890;2024-01-25T11:21:40;43.60;40.89;52.75;;
60031;Laerm;45901;47.600;9.890;2024-01-25T11:24:12;43.56;41.14;48.84;;
60031;Laerm;45901;47.600;9.890;2024-01-25T11:26:43;43.10;40.33;44.89;;
60031;Laerm;45901;47.600;9.890;2024-01-25T11:29:10;42.82;40.71;44.43;;
60031;Laerm;45901;47.600;9.890;2024-01-25T11:31:41;42.98;40.71;45.86;;
60031;Laerm;45901;47.600;9.890;2024-01-25T11:34:11;43.05;40.71;52.45;;
60031;Laerm;45901;47.600;9.890;2024-01-25T11:36:38;42.98;40.13;51.78;;
60031;Laerm;45901;47.600;9.890;2024-01-25T11:39:05;42.77;40.23;44.27;;
60031;Laerm;45901;47.600;9.890;2024-01-25T11:41:32;42.78;40.13;44.47;;
60031;Laerm;45901;47.600;9.890;2024-01-25T11:44:01;42.98;40.43;46.20;;
60031;Laerm;45901;47.600;9.890;2024-01-25T11:46:28;42.88;40.43;46.43;;
60031;Laerm;45901;47.600;9.890;2024-01-25T11:48:58;43.04;40.23;45.63;;
60031;Laerm;45901;47.600;9.890;2024-01-25T11:51:25;43.10;40.43;46.28;;
60031;Laerm;45901;47.600;9.890;2024-01-25T11:53:52;43.12;40.43;46.20;;
60031;Laerm;45901;47.600;9.890;2024-01-25T11:56:23;43.07;40.13;44.80;;
60031;Laerm;45901;47.600;9.890;2024-01-25T11:58:51;43.21;40.62;46.10;;
60031;Laerm;45901;47.600;9.890;2024-01-25T12:01:20;43.32;40.54;46.87;;
60031;Laerm;45901;47.600;9.890;2024-01-25T12:03:47;43.08;40.23;47.67;;
60031;Laerm;45901;47.600;9.890;2024-01-25T12:06:14;43.13;40.23;46.13;;
60031;Laerm;45901;47.600;9.890;2024-01-25T12:08:41;43.16;40.71;46.76;;
60031;Laerm;45901;47.600;9.890;2024-01-25T12:11:09;42.84;39.70;44.90;;
60031;Laerm;45901;47.600;9.890;2024-01-25T12:13:40;43.09;40.62;45.33;;
60031;Laerm;45901;47.600;9.890;2024-01-25T12:16:08;43.08;40.03;46.38;;
60031;Laerm;45901;47.600;9.890;2024-01-25T12:18:37;43.11;39.81;45.86;;
60031;Laerm;45901;47.600;9.890;2024-01-25T12:21:05;43.29;40.53;47.55;;
60031;Laerm;45901;47.600;9.890;2024-01-25T12:23:33;43.30;40.23;45.94;;
60031;Laerm;45901;47.600;9.890;2024-01-25T12:26:01;43.33;40.53;45.80;;
60031;Laerm;45901;47.600;9.890;2024-01-25T12:28:29;43.22;40.43;47.36;;
60031;Laerm;45901;47.600;9.890;2024-01-25T12:30:56;43.20;40.53;46.56;;
60031;Laerm;45901;47.600;9.890;2024-01-25T12:33:24;43.14;40.33;49.03;;
60031;Laerm;45901;47.600;9.890;2024-01-25T12:35:52;42.85;40.43;45.66;;
60031;Laerm;45901;47.600;9.890;2024-01-25T12:38:20;43.04;40.89;48.73;;
60031;Laerm;45901;47.600;9.890;2024-01-25T12:40:49;43.01;40.80;45.66;;
60031;Laerm;45901;47.600;9.890;2024-01-25T12:43:16;42.85;40.62;45.17;;
60031;Laerm;45901;47.600;9.890;2024-01-25T12:45:44;42.95;39.70;47.26;;
60031;Laerm;45901;47.600;9.890;2024-01-25T12:48:11;43.42;40.23;48.36;;
60031;Laerm;45901;47.600;9.890;2024-01-25T12:50:38;43.61;41.46;50.31;;
60031;Laerm;45901;47.600;9.890;2024-01-25T12:53:06;43.54;40.80;52.79;;
60031;Laerm;45901;47.600;9.890;2024-01-25T12:55:33;43.34;40.89;45.45;;
60031;Laerm;45901;47.600;9.890;2024-01-25T12:58:01;43.28;40.80;45.99;;
60031;Laerm;45901;47.600;9.890;2024-01-25T13:00:28;43.33;40.53;46.55;;
60031;Laerm;45901;47.600;9.890;2024-01-25T13:02:55;43.82;40.43;48.71;;
60031;Laerm;45901;47.600;9.890;2024-01-25T13:05:23;43.24;40.53;45.48;;
60031;Laerm;45901;47.600;9.890;2024-01-25T13:07:50;43.21;40.43;45.33;;
60031;Laerm;45901;47.600;9.890;2024-01-25T13:10:18;43.35;40.33;45.86;;
60031;Laerm;45901;47.600;9.890;2024-01-25T13:12:45;44.38;41.68;49.20;;
60031;Laerm;45901;47.600;9.890;2024-01-25T13:15:12;44.68;42.41;49.55;;
60031;Laerm;45901;47.600;9.890;2024-01-25T13:17:40;44.06;41.22;47.24;;
60031;Laerm;45901;47.600;9.890;2024-01-25T13:20:08;43.59;40.80;46.71;;
60031;Laerm;45901;47.600;9.890;2024-01-25T13:22:35;44.04;40.89;60.40;;
60031;Laerm;45901;47.600;9.890;2024-01-25T13:25:03;43.74;40.53;47.55;;
60031;Laerm;45901;47.600;9.890;2024-01-25T13:27:32;43.32;40.23;47.86;;
60031;Laerm;45901;47.600;9.890;2024-01-25T13:29:59;42.65;39.92;45.33;;
60031;Laerm;45901;47.600;9.890;2024-01-25T13:32:26;42.78;40.23;48.43;;
60031;Laerm;45901;47.600;9.890;2024-01-25T13:34:54;42.80;40.43;46.18;;
60031;Laerm;45901;47.600;9.890;2024-01-25T13:37:21;42.76;40.43;45.01;;
60031;Laerm;45901;47.600;9.890;2024-01-25T13:39:48;42.64;39.78;44.94;;
60031;Laerm;45901;47.600;9.890;2024-01-25T13:42:15;42.63;39.58;44.97;;
60031;Laerm;45901;47.600;9.890;2024-01-25T13:44:43;42.64;40.13;46.23;;
60031;Laerm;45901;47.600;9.890;2024-01-25T13:47:10;42.48;39.92;45.54;;
60031;Laerm;45901;47.600;9.890;2024-01-25T13:49:37;42.54;39.81;44.87;;
60031;Laerm;45901;47.600;9.890;2024-01-25T13:52:05;42.47;39.92;44.23;;
60031;Laerm;45901;47.600;9.890;2024-01-25T13:54:32;42.61;40.03;46.10;;
60031;Laerm;45901;47.600;9.890;2024-01-25T13:57:00;42.70;39.70;45.27;;
60031;Laerm;45901;47.600;9.890;2024-01-25T13:59:27;43.28;40.13;49.30;;
60031;Laerm;45901;47.600;9.890;2024-01-25T14:01:55;43.61;40.13;50.56;;
60031;Laerm;45901;47.600;9.890;2024-01-25T14:04:23;43.20;39.34;48.77;;
60031;Laerm;45901;47.600;9.890;2024-01-25T14:06:50;42.85;39.58;45.40;;
60031;Laerm;45901;47.600;9.890;2024-01-25T14:09:17;42.56;40.18;44.23;;
60031;Laerm;45901;47.600;9.890;2024-01-25T14:11:44;42.46;39.81;44.47;;
60031;Laerm;45901;47.600;9.890;2024-01-25T14:14:11;42.62;39.46;44.39;;
60031;Laerm;45901;47.600;9.890;2024-01-25T14:16:46;42.68;39.81;46.13;;
60031;Laerm;45901;47.600;9.890;2024-01-25T14:19:14;42.47;39.58;44.03;;
60031;Laerm;45901;47.600;9.890;2024-01-25T14:21:43;42.44;39.92;44.03;;
60031;Laerm;45901;47.600;9.890;2024-01-25T14:24:09;42.46;39.21;44.03;;
60031;Laerm;45901;47.600;9.890;2024-01-25T14:26:36;42.61;38.95;46.45;;
60031;Laerm;45901;47.600;9.890;2024-01-25T14:29:03;42.54;39.21;44.23;;
60031;Laerm;45901;47.600;9.890;2024-01-25T14:31:30;42.62;39.21;45.80;;
60031;Laerm;45901;47.600;9.890;2024-01-25T14:33:57;42.57;39.81;48.45;;
60031;Laerm;45901;47.600;9.890;2024-01-25T14:36:25;42.34;39.92;52.55;;
60031;Laerm;45901;47.600;9.890;2024-01-25T14:38:52;42.36;39.92;44.11;;
60031;Laerm;45901;47.600;9.890;2024-01-25T14:41:19;42.24;39.34;44.07;;
60031;Laerm;45901;47.600;9.890;2024-01-25T14:43:46;42.35;39.21;44.94;;
60031;Laerm;45901;47.600;9.890;2024-01-25T14:46:14;42.43;39.58;45.27;;
60031;Laerm;45901;47.600;9.890;2024-01-25T14:48:41;42.25;38.95;44.03;;
60031;Laerm;45901;47.600;9.890;2024-01-25T14:51:08;42.15;39.34;44.43;;
60031;Laerm;45901;47.600;9.890;2024-01-25T14:53:36;42.20;39.81;44.90;;
60031;Laerm;45901;47.600;9.890;2024-01-25T14:56:04;42.12;39.58;43.94;;
60031;Laerm;45901;47.600;9.890;2024-01-25T14:58:31;42.44;39.58;44.69;;
60031;Laerm;45901;47.600;9.890;2024-01-25T15:00:58;42.39;39.34;44.35;;
60031;Laerm;45901;47.600;9.890;2024-01-25T15:03:25;45.35;39.21;54.61;;
60031;Laerm;45901;47.600;9.890;2024-01-25T15:05:52;45.36;42.03;51.67;;
60031;Laerm;45901;47.600;9.890;2024-01-25T15:08:19;44.33;41.82;47.26;;
60031;Laerm;45901;47.600;9.890;2024-01-25T15:10:47;43.61;41.26;51.79;;
60031;Laerm;45901;47.600;9.890;2024-01-25T15:13:14;43.80;41.06;51.66;;
60031;Laerm;45901;47.600;9.890;2024-01-25T15:15:41;43.51;40.71;47.98;;
60031;Laerm;45901;47.600;9.890;2024-01-25T15:18:09;43.59;41.06;56.46;;
60031;Laerm;45901;47.600;9.890;2024-01-25T15:20:36;43.29;40.53;47.74;;
60031;Laerm;45901;47.600;9.890;2024-01-25T15:23:03;43.20;40.80;45.75;;
60031;Laerm;45901;47.600;9.890;2024-01-25T15:25:30;43.14;40.43;47.30;;
60031;Laerm;45901;47.600;9.890;2024-01-25T15:27:58;43.14;41.06;47.02;;
60031;Laerm;45901;47.600;9.890;2024-01-25T15:30:26;43.14;40.89;47.81;;
60031;Laerm;45901;47.600;9.890;2024-01-25T15:32:53;43.56;40.98;50.99;;
60031;Laerm;45901;47.600;9.890;2024-01-25T15:35:19;43.65;40.53;49.73;;
60031;Laerm;45901;47.600;9.890;2024-01-25T15:37:46;44.06;41.19;50.35;;
60031;Laerm;45901;47.600;9.890;2024-01-25T15:40:14;44.04;41.06;51.30;;
60031;Laerm;45901;47.600;9.890;2024-01-25T15:42:42;43.31;39.92;50.23;;
60031;Laerm;45901;47.600;9.890;2024-01-25T15:45:11;43.17;39.58;49.27;;
60031;Laerm;45901;47.600;9.890;2024-01-25T15:47:38;43.02;40.03;49.30;;
60031;Laerm;45901;47.600;9.890;2024-01-25T15:50:08;43.47;39.46;46.23;;
60031;Laerm;45901;47.600;9.890;2024-01-25T15:52:35;44.20;41.82;49.03;;
60031;Laerm;45901;47.600;9.890;2024-01-25T15:55:02;43.74;39.58;45.89;;
60031;Laerm;45901;47.600;9.890;2024-01-25T15:57:29;43.87;40.71;48.45;;
60031;Laerm;45901;47.600;9.890;2024-01-25T15:59:56;44.06;41.22;49.58;;
60031;Laerm;45901;47.600;9.890;2024-01-25T16:02:25;43.21;40.53;47.50;;
60031;Laerm;45901;47.600;9.890;2024-01-25T16:04:52;43.19;40.33;47.16;;
60031;Laerm;45901;47.600;9.890;2024-01-25T16:07:19;43.52;40.98;50.16;;
60031;Laerm;45901;47.600;9.890;2024-01-25T16:09:46;43.71;40.98;49.45;;
60031;Laerm;45901;47.600;9.890;2024-01-25T16:12:13;43.64;40.80;50.89;;
60031;Laerm;45901;47.600;9.890;2024-01-25T16:14:40;43.55;40.54;49.04;;
60031;Laerm;45901;47.600;9.890;2024-01-25T16:17:07;43.41;40.62;47.10;;
60031;Laerm;45901;47.600;9.890;2024-01-25T16:19:37;43.41;40.98;46.93;;
60031;Laerm;45901;47.600;9.890;2024-01-25T16:22:04;43.21;40.03;47.40;;
60031;Laerm;45901;47.600;9.890;2024-01-25T16:24:31;42.99;40.62;45.30;;
60031;Laerm;45901;47.600;9.890;2024-01-25T16:26:58;43.48;40.03;66.44;;
60031;Laerm;45901;47.600;9.890;2024-01-25T16:29:25;43.39;41.06;46.48;;
60031;Laerm;45901;47.600;9.890;2024-01-25T16:31:52;46.04;39.70;55.54;;
60031;Laerm;45901;47.600;9.890;2024-01-25T16:34:19;44.83;40.62;52.83;;
60031;Laerm;45901;47.600;9.890;2024-01-25T16:36:48;44.29;40.13;52.04;;
60031;Laerm;45901;47.600;9.890;2024-01-25T16:39:15;45.21;39.46;69.01;;
60031;Laerm;45901;47.600;9.890;2024-01-25T16:41:42;44.78;41.14;52.13;;
60031;Laerm;45901;47.600;9.890;2024-01-25T16:44:09;44.53;39.92;52.62;;
60031;Laerm;45901;47.600;9.890;2024-01-25T16:46:36;44.06;39.34;52.06;;
60031;Laerm;45901;47.600;9.890;2024-01-25T16:49:03;43.75;40.62;52.02;;
60031;Laerm;45901;47.600;9.890;2024-01-25T16:51:30;44.74;40.23;51.93;;
60031;Laerm;45901;47.600;9.890;2024-01-25T16:53:59;44.88;41.30;49.96;;
60031;Laerm;45901;47.600;9.890;2024-01-25T16:56:26;43.64;40.23;59.35;;
60031;Laerm;45901;47.600;9.890;2024-01-25T16:58:53;43.20;39.58;46.07;;
60031;Laerm;45901;47.600;9.890;2024-01-25T17:01:20;43.77;40.53;51.81;;
60031;Laerm;45901;47.600;9.890;2024-01-25T17:03:47;44.78;39.46;53.50;;
60031;Laerm;45901;47.600;9.890;2024-01-25T17:06:14;43.73;39.46;52.89;;
60031;Laerm;45901;47.600;9.890;2024-01-25T17:08:41;43.58;39.46;52.68;;
60031;Laerm;45901;47.600;9.890;2024-01-25T17:11:10;43.74;39.78;52.77;;
60031;Laerm;45901;47.600;9.890;2024-01-25T17:13:37;43.30;39.70;51.79;;
60031;Laerm;45901;47.600;9.890;2024-01-25T17:16:05;43.57;39.92;51.84;;
60031;Laerm;45901;47.600;9.890;2024-01-25T17:18:32;43.82;39.21;51.21;;
60031;Laerm;45901;47.600;9.890;2024-01-25T17:20:59;43.43;39.46;51.50;;
60031;Laerm;45901;47.600;9.890;2024-01-25T17:23:26;43.42;40.03;53.08;;
60031;Laerm;45901;47.600;9.890;2024-01-25T17:25:53;45.68;39.46;51.93;;
60031;Laerm;45901;47.600;9.890;2024-01-25T17:28:22;44.10;40.13;50.92;;
60031;Laerm;45901;47.600;9.890;2024-01-25T17:30:49;43.59;38.67;52.04;;
60031;Laerm;45901;47.600;9.890;2024-01-25T17:33:16;43.32;38.95;52.29;;
60031;Laerm;45901;47.600;9.890;2024-01-25T17:35:43;43.35;39.21;51.93;;
60031;Laerm;45901;47.600;9.890;2024-01-25T17:38:14;43.36;39.81;52.48;;
60031;Laerm;45901;47.600;9.890;2024-01-25T17:40:42;43.43;39.08;52.62;;
60031;Laerm;45901;47.600;9.890;2024-01-25T17:43:10;43.17;38.05;50.53;;
60031;Laerm;45901;47.600;9.890;2024-01-25T17:45:38;43.68;39.34;50.83;;
60031;Laerm;45901;47.600;9.890;2024-01-25T17:48:06;43.69;39.46;52.18;;
60031;Laerm;45901;47.600;9.890;2024-01-25T17:50:33;43.83;40.03;51.11;;
60031;Laerm;45901;47.600;9.890;2024-01-25T17:53:01;44.98;39.68;53.10;;
60031;Laerm;45901;47.600;9.890;2024-01-25T17:55:28;43.81;40.03;51.23;;
60031;Laerm;45901;47.600;9.890;2024-01-25T17:57:55;43.53;39.70;52.67;;
60031;Laerm;45901;47.600;9.890;2024-01-25T18:00:22;43.43;38.95;53.45;;
60031;Laerm;45901;47.600;9.890;2024-01-25T18:02:51;44.16;39.81;52.22;;
60031;Laerm;45901;47.600;9.890;2024-01-25T18:05:18;43.41;39.70;52.08;;
60031;Laerm;45901;47.600;9.890;2024-01-25T18:07:46;43.62;39.58;51.41;;
60031;Laerm;45901;47.600;9.890;2024-01-25T18:10:13;43.24;39.21;51.59;;
60031;Laerm;45901;47.600;9.890;2024-01-25T18:12:41;43.43;40.03;52.44;;
60031;Laerm;45901;47.600;9.890;2024-01-25T18:15:08;43.81;40.71;51.13;;
60031;Laerm;45901;47.600;9.890;2024-01-25T18:17:36;44.24;41.61;47.88;;
60031;Laerm;45901;47.600;9.890;2024-01-25T18:20:06;44.08;40.89;47.86;;
60031;Laerm;45901;47.600;9.890;2024-01-25T18:22:34;43.89;41.14;48.15;;
60031;Laerm;45901;47.600;9.890;2024-01-25T18:25:01;43.71;41.14;47.82;;
60031;Laerm;45901;47.600;9.890;2024-01-25T18:27:28;43.86;40.98;54.30;;
60031;Laerm;45901;47.600;9.890;2024-01-25T18:29:56;43.62;40.62;46.95;;
60031;Laerm;45901;47.600;9.890;2024-01-25T18:32:23;43.07;40.23;45.77;;
60031;Laerm;45901;47.600;9.890;2024-01-25T18:34:50;42.95;40.33;44.80;;
60031;Laerm;45901;47.600;9.890;2024-01-25T18:37:19;42.82;39.58;45.37;;
60031;Laerm;45901;47.600;9.890;2024-01-25T18:39:46;43.64;40.98;48.52;;
60031;Laerm;45901;47.600;9.890;2024-01-25T18:42:13;43.74;40.13;47.95;;
60031;Laerm;45901;47.600;9.890;2024-01-25T18:44:40;43.41;40.63;47.50;;
60031;Laerm;45901;47.600;9.890;2024-01-25T18:47:07;43.53;40.80;47.48;;
60031;Laerm;45901;47.600;9.890;2024-01-25T18:49:36;42.88;40.13;45.36;;
60031;Laerm;45901;47.600;9.890;2024-01-25T18:52:04;42.96;40.33;45.36;;
60031;Laerm;45901;47.600;9.890;2024-01-25T18:54:33;42.58;40.33;44.76;;
60031;Laerm;45901;47.600;9.890;2024-01-25T18:57:01;42.87;39.34;46.18;;
60031;Laerm;45901;47.600;9.890;2024-01-25T18:59:30;43.75;40.80;53.28;;
60031;Laerm;45901;47.600;9.890;2024-01-25T19:01:57;43.86;40.71;47.84;;
60031;Laerm;45901;47.600;9.890;2024-01-25T19:04:25;43.80;40.03;48.31;;
60031;Laerm;45901;47.600;9.890;2024-01-25T19:06:55;43.32;40.71;45.77;;
60031;Laerm;45901;47.600;9.890;2024-01-25T19:09:24;42.88;39.70;45.04;;
60031;Laerm;45901;47.600;9.890;2024-01-25T19:11:53;43.45;39.92;47.42;;
60031;Laerm;45901;47.600;9.890;2024-01-25T19:14:20;43.69;41.14;48.16;;
60031;Laerm;45901;47.600;9.890;2024-01-25T19:16:48;43.68;40.53;47.81;;
60031;Laerm;45901;47.600;9.890;2024-01-25T19:19:17;43.23;40.13;45.94;;
60031;Laerm;45901;47.600;9.890;2024-01-25T19:21:44;42.91;40.23;45.60;;
60031;Laerm;45901;47.600;9.890;2024-01-25T19:24:11;42.33;39.81;44.31;;
60031;Laerm;45901;47.600;9.890;2024-01-25T19:26:42;42.45;39.34;44.90;;
60031;Laerm;45901;47.600;9.890;2024-01-25T19:29:12;43.53;40.23;46.62;;
60031;Laerm;45901;47.600;9.890;2024-01-25T19:31:40;43.54;40.89;46.97;;
60031;Laerm;45901;47.600;9.890;2024-01-25T19:34:08;43.52;40.80;47.13;;
60031;Laerm;45901;47.600;9.890;2024-01-25T19:36:35;43.17;40.98;46.43;;
60031;Laerm;45901;47.600;9.890;2024-01-25T19:39:03;42.33;38.52;44.11;;
60031;Laerm;45901;47.600;9.890;2024-01-25T19:41:30;42.09;39.58;43.86;;
60031;Laerm;45901;47.600;9.890;2024-01-25T19:43:59;42.02;39.46;43.58;;